sensor_id;sensor_type;location;lat;lon;timestamp;temperature;humidity
56542;DHT22;42438;53.174;6.730;2023-12-20T00:01:06;5.40;99.90
56542;DHT22;42438;53.174;6.730;2023-12-20T00:03:37;5.40;99.90
56542;DHT22;42438;53.174;6.730;2023-12-20T00:06:08;5.30;99.90
56542;DHT22;42438;53.174;6.730;2023-12-20T00:08:39;5.30;99.90
56542;DHT22;42438;53.174;6.730;2023-12-20T00:11:09;5.30;99.90
56542;DHT22;42438;53.174;6.730;2023-12-20T00:13:40;5.20;99.90
56542;DHT22;42438;53.174;6.730;2023-12-20T00:16:11;5.10;99.90
56542;DHT22;42438;53.174;6.730;2023-12-20T00:18:41;5.20;99.90
56542;DHT22;42438;53.174;6.730;2023-12-20T00:21:12;5.10;99.90
56542;DHT22;42438;53.174;6.730;2023-12-20T00:23:42;5.20;99.90
56542;DHT22;42438;53.174;6.730;2023-12-20T00:26:13;5.10;99.90
56542;DHT22;42438;53.174;6.730;2023-12-20T00:28:44;5.20;99.90
56542;DHT22;42438;53.174;6.730;2023-12-20T00:31:14;5.10;99.90
56542;DHT22;42438;53.174;6.730;2023-12-20T00:33:45;5.60;99.90
56542;DHT22;42438;53.174;6.730;2023-12-20T00:36:17;5.70;99.90
56542;DHT22;42438;53.174;6.730;2023-12-20T00:38:48;5.00;99.90
56542;DHT22;42438;53.174;6.730;2023-12-20T00:41:18;5.00;99.90
56542;DHT22;42438;53.174;6.730;2023-12-20T00:43:49;5.00;99.90
56542;DHT22;42438;53.174;6.730;2023-12-20T00:46:20;5.00;99.90
56542;DHT22;42438;53.174;6.730;2023-12-20T00:48:50;5.40;99.90
56542;DHT22;42438;53.174;6.730;2023-12-20T00:51:21;5.20;99.90
56542;DHT22;42438;53.174;6.730;2023-12-20T00:53:52;5.10;99.90
56542;DHT22;42438;53.174;6.730;2023-12-20T00:56:25;5.00;99.90
56542;DHT22;42438;53.174;6.730;2023-12-20T00:58:55;5.10;99.90
56542;DHT22;42438;53.174;6.730;2023-12-20T01:01:26;5.70;99.90
56542;DHT22;42438;53.174;6.730;2023-12-20T01:03:57;5.10;99.90
56542;DHT22;42438;53.174;6.730;2023-12-20T01:06:27;5.10;99.90
56542;DHT22;42438;53.174;6.730;2023-12-20T01:08:58;5.20;99.90
56542;DHT22;42438;53.174;6.730;2023-12-20T01:11:29;5.20;99.90
56542;DHT22;42438;53.174;6.730;2023-12-20T01:13:59;5.20;99.90
56542;DHT22;42438;53.174;6.730;2023-12-20T01:16:30;5.20;99.90
56542;DHT22;42438;53.174;6.730;2023-12-20T01:19:01;5.10;99.90
56542;DHT22;42438;53.174;6.730;2023-12-20T01:21:31;5.20;99.90
56542;DHT22;42438;53.174;6.730;2023-12-20T01:24:02;5.90;99.90
56542;DHT22;42438;53.174;6.730;2023-12-20T01:26:32;5.20;99.90
56542;DHT22;42438;53.174;6.730;2023-12-20T01:29:03;5.20;99.90
56542;DHT22;42438;53.174;6.730;2023-12-20T01:31:34;5.20;99.90
56542;DHT22;42438;53.174;6.730;2023-12-20T01:34:04;5.10;99.90
56542;DHT22;42438;53.174;6.730;2023-12-20T01:36:35;5.10;99.90
56542;DHT22;42438;53.174;6.730;2023-12-20T01:39:06;5.10;99.90
56542;DHT22;42438;53.174;6.730;2023-12-20T01:41:36;5.10;99.90
56542;DHT22;42438;53.174;6.730;2023-12-20T01:44:07;5.20;99.90
56542;DHT22;42438;53.174;6.730;2023-12-20T01:46:38;5.20;99.90
56542;DHT22;42438;53.174;6.730;2023-12-20T01:49:08;5.30;99.90
56542;DHT22;42438;53.174;6.730;2023-12-20T01:51:39;5.40;99.90
56542;DHT22;42438;53.174;6.730;2023-12-20T01:54:10;5.50;99.90
56542;DHT22;42438;53.174;6.730;2023-12-20T01:56:42;5.60;99.90
56542;DHT22;42438;53.174;6.730;2023-12-20T01:59:13;5.70;99.90
56542;DHT22;42438;53.174;6.730;2023-12-20T02:01:43;6.00;99.90
56542;DHT22;42438;53.174;6.730;2023-12-20T02:04:15;5.60;99.90
56542;DHT22;42438;53.174;6.730;2023-12-20T02:06:46;6.10;99.90
56542;DHT22;42438;53.174;6.730;2023-12-20T02:09:18;6.00;99.90
56542;DHT22;42438;53.174;6.730;2023-12-20T02:11:49;5.50;99.90
56542;DHT22;42438;53.174;6.730;2023-12-20T02:14:20;6.00;99.90
56542;DHT22;42438;53.174;6.730;2023-12-20T02:16:50;5.60;99.90
56542;DHT22;42438;53.174;6.730;2023-12-20T02:19:21;5.60;99.90
56542;DHT22;42438;53.174;6.730;2023-12-20T02:22:08;5.90;99.90
56542;DHT22;42438;53.174;6.730;2023-12-20T02:24:39;5.70;99.90
56542;DHT22;42438;53.174;6.730;2023-12-20T02:27:09;6.40;99.90
56542;DHT22;42438;53.174;6.730;2023-12-20T02:29:40;5.60;99.90
56542;DHT22;42438;53.174;6.730;2023-12-20T02:32:11;5.90;99.90
56542;DHT22;42438;53.174;6.730;2023-12-20T02:34:41;5.80;99.90
56542;DHT22;42438;53.174;6.730;2023-12-20T02:37:12;6.00;99.90
56542;DHT22;42438;53.174;6.730;2023-12-20T02:39:42;5.50;99.90
56542;DHT22;42438;53.174;6.730;2023-12-20T02:42:13;5.50;99.90
56542;DHT22;42438;53.174;6.730;2023-12-20T02:44:44;5.50;99.90
56542;DHT22;42438;53.174;6.730;2023-12-20T02:47:14;5.50;99.90
56542;DHT22;42438;53.174;6.730;2023-12-20T02:49:45;6.10;99.90
56542;DHT22;42438;53.174;6.730;2023-12-20T02:52:16;5.80;99.90
56542;DHT22;42438;53.174;6.730;2023-12-20T02:54:46;5.60;99.90
56542;DHT22;42438;53.174;6.730;2023-12-20T02:57:17;6.40;99.90
56542;DHT22;42438;53.174;6.730;2023-12-20T02:59:48;6.40;99.90
56542;DHT22;42438;53.174;6.730;2023-12-20T03:02:18;5.90;99.90
56542;DHT22;42438;53.174;6.730;2023-12-20T03:04:49;6.00;99.90
56542;DHT22;42438;53.174;6.730;2023-12-20T03:07:20;6.00;99.90
56542;DHT22;42438;53.174;6.730;2023-12-20T03:09:51;5.90;99.90
56542;DHT22;42438;53.174;6.730;2023-12-20T03:12:22;5.80;99.90
56542;DHT22;42438;53.174;6.730;2023-12-20T03:14:52;5.80;99.90
56542;DHT22;42438;53.174;6.730;2023-12-20T03:17:23;6.00;99.90
56542;DHT22;42438;53.174;6.730;2023-12-20T03:19:53;5.70;99.90
56542;DHT22;42438;53.174;6.730;2023-12-20T03:22:24;6.00;99.90
56542;DHT22;42438;53.174;6.730;2023-12-20T03:24:55;5.70;99.90
56542;DHT22;42438;53.174;6.730;2023-12-20T03:27:25;5.90;99.90
56542;DHT22;42438;53.174;6.730;2023-12-20T03:29:56;6.20;99.90
56542;DHT22;42438;53.174;6.730;2023-12-20T03:32:26;5.80;99.90
56542;DHT22;42438;53.174;6.730;2023-12-20T03:34:57;6.20;99.90
56542;DHT22;42438;53.174;6.730;2023-12-20T03:37:28;5.90;99.90
56542;DHT22;42438;53.174;6.730;2023-12-20T03:39:58;5.90;99.90
56542;DHT22;42438;53.174;6.730;2023-12-20T03:42:29;5.90;99.90
56542;DHT22;42438;53.174;6.730;2023-12-20T03:44:59;5.90;99.90
56542;DHT22;42438;53.174;6.730;2023-12-20T03:47:30;6.10;99.90
56542;DHT22;42438;53.174;6.730;2023-12-20T03:50:01;6.00;99.90
56542;DHT22;42438;53.174;6.730;2023-12-20T03:52:32;6.20;99.90
56542;DHT22;42438;53.174;6.730;2023-12-20T03:55:03;6.30;99.90
56542;DHT22;42438;53.174;6.730;2023-12-20T03:57:34;6.00;99.90
56542;DHT22;42438;53.174;6.730;2023-12-20T04:00:06;6.00;99.90
56542;DHT22;42438;53.174;6.730;2023-12-20T04:02:41;6.00;99.90
56542;DHT22;42438;53.174;6.730;2023-12-20T04:05:12;6.00;99.90
56542;DHT22;42438;53.174;6.730;2023-12-20T04:07:43;6.10;99.90
56542;DHT22;42438;53.174;6.730;2023-12-20T04:10:14;6.10;99.90
56542;DHT22;42438;53.174;6.730;2023-12-20T04:12:44;6.30;99.90
56542;DHT22;42438;53.174;6.730;2023-12-20T04:15:15;6.00;99.90
56542;DHT22;42438;53.174;6.730;2023-12-20T04:17:46;6.60;99.90
56542;DHT22;42438;53.174;6.730;2023-12-20T04:20:16;5.90;99.90
56542;DHT22;42438;53.174;6.730;2023-12-20T04:22:47;5.80;99.90
56542;DHT22;42438;53.174;6.730;2023-12-20T04:25:18;5.90;99.90
56542;DHT22;42438;53.174;6.730;2023-12-20T04:27:48;5.90;99.90
56542;DHT22;42438;53.174;6.730;2023-12-20T04:30:19;6.40;99.90
56542;DHT22;42438;53.174;6.730;2023-12-20T04:32:49;5.30;99.90
56542;DHT22;42438;53.174;6.730;2023-12-20T04:35:20;6.00;99.90
56542;DHT22;42438;53.174;6.730;2023-12-20T04:37:51;6.20;99.90
56542;DHT22;42438;53.174;6.730;2023-12-20T04:40:21;6.30;98.60
56542;DHT22;42438;53.174;6.730;2023-12-20T04:42:52;6.00;95.00
56542;DHT22;42438;53.174;6.730;2023-12-20T04:45:23;6.20;95.00
56542;DHT22;42438;53.174;6.730;2023-12-20T04:47:55;6.10;90.30
56542;DHT22;42438;53.174;6.730;2023-12-20T04:50:26;6.10;73.20
56542;DHT22;42438;53.174;6.730;2023-12-20T04:52:57;6.70;64.10
56542;DHT22;42438;53.174;6.730;2023-12-20T04:55:27;6.10;59.10
56542;DHT22;42438;53.174;6.730;2023-12-20T04:57:58;6.30;60.00
56542;DHT22;42438;53.174;6.730;2023-12-20T05:00:29;6.30;57.40
56542;DHT22;42438;53.174;6.730;2023-12-20T05:03:00;6.40;56.20
56542;DHT22;42438;53.174;6.730;2023-12-20T05:05:31;6.20;63.60
56542;DHT22;42438;53.174;6.730;2023-12-20T05:08:02;6.20;64.90
56542;DHT22;42438;53.174;6.730;2023-12-20T05:10:33;6.30;64.20
56542;DHT22;42438;53.174;6.730;2023-12-20T05:13:03;6.40;58.80
56542;DHT22;42438;53.174;6.730;2023-12-20T05:15:34;6.40;55.70
56542;DHT22;42438;53.174;6.730;2023-12-20T05:18:05;6.40;50.80
56542;DHT22;42438;53.174;6.730;2023-12-20T05:20:35;6.50;50.30
56542;DHT22;42438;53.174;6.730;2023-12-20T05:23:06;6.50;51.10
56542;DHT22;42438;53.174;6.730;2023-12-20T05:25:37;6.80;50.10
56542;DHT22;42438;53.174;6.730;2023-12-20T05:28:08;6.60;48.00
56542;DHT22;42438;53.174;6.730;2023-12-20T05:30:38;6.60;45.10
56542;DHT22;42438;53.174;6.730;2023-12-20T05:33:09;6.60;41.10
56542;DHT22;42438;53.174;6.730;2023-12-20T05:35:40;6.70;36.70
56542;DHT22;42438;53.174;6.730;2023-12-20T05:38:10;6.60;32.10
56542;DHT22;42438;53.174;6.730;2023-12-20T05:40:41;6.70;29.50
56542;DHT22;42438;53.174;6.730;2023-12-20T05:43:11;6.60;21.40
56542;DHT22;42438;53.174;6.730;2023-12-20T05:45:42;6.70;19.90
56542;DHT22;42438;53.174;6.730;2023-12-20T05:48:13;6.70;17.00
56542;DHT22;42438;53.174;6.730;2023-12-20T05:50:43;6.70;17.40
56542;DHT22;42438;53.174;6.730;2023-12-20T05:53:14;6.70;15.50
56542;DHT22;42438;53.174;6.730;2023-12-20T05:55:44;6.70;9.70
56542;DHT22;42438;53.174;6.730;2023-12-20T05:58:15;6.80;11.20
56542;DHT22;42438;53.174;6.730;2023-12-20T06:00:46;6.80;1.30
56542;DHT22;42438;53.174;6.730;2023-12-20T06:03:16;6.80;1.00
56542;DHT22;42438;53.174;6.730;2023-12-20T06:05:47;6.80;1.00
56542;DHT22;42438;53.174;6.730;2023-12-20T06:08:18;6.80;1.00
56542;DHT22;42438;53.174;6.730;2023-12-20T06:10:49;6.90;1.00
56542;DHT22;42438;53.174;6.730;2023-12-20T06:13:19;6.90;1.00
56542;DHT22;42438;53.174;6.730;2023-12-20T06:15:50;6.90;1.00
56542;DHT22;42438;53.174;6.730;2023-12-20T06:18:21;6.80;1.00
56542;DHT22;42438;53.174;6.730;2023-12-20T06:20:52;6.80;1.00
56542;DHT22;42438;53.174;6.730;2023-12-20T06:23:22;6.80;1.00
56542;DHT22;42438;53.174;6.730;2023-12-20T06:25:53;6.80;1.00
56542;DHT22;42438;53.174;6.730;2023-12-20T06:28:23;6.90;1.00
56542;DHT22;42438;53.174;6.730;2023-12-20T06:30:54;6.90;1.00
56542;DHT22;42438;53.174;6.730;2023-12-20T06:33:25;6.90;1.00
56542;DHT22;42438;53.174;6.730;2023-12-20T06:35:56;6.90;1.00
56542;DHT22;42438;53.174;6.730;2023-12-20T06:38:26;6.90;1.00
56542;DHT22;42438;53.174;6.730;2023-12-20T06:40:57;6.90;1.00
56542;DHT22;42438;53.174;6.730;2023-12-20T06:43:29;6.90;1.00
56542;DHT22;42438;53.174;6.730;2023-12-20T06:46:00;6.90;1.00
56542;DHT22;42438;53.174;6.730;2023-12-20T06:48:31;7.10;1.00
56542;DHT22;42438;53.174;6.730;2023-12-20T06:51:02;6.90;1.00
56542;DHT22;42438;53.174;6.730;2023-12-20T06:53:33;6.90;1.00
56542;DHT22;42438;53.174;6.730;2023-12-20T06:56:03;7.00;1.00
56542;DHT22;42438;53.174;6.730;2023-12-20T06:58:35;7.00;1.00
56542;DHT22;42438;53.174;6.730;2023-12-20T07:01:14;7.00;1.00
56542;DHT22;42438;53.174;6.730;2023-12-20T07:03:44;7.10;1.00
56542;DHT22;42438;53.174;6.730;2023-12-20T07:06:15;7.10;1.00
56542;DHT22;42438;53.174;6.730;2023-12-20T07:08:46;7.10;1.00
56542;DHT22;42438;53.174;6.730;2023-12-20T07:11:17;7.10;1.00
56542;DHT22;42438;53.174;6.730;2023-12-20T07:13:48;7.20;1.00
56542;DHT22;42438;53.174;6.730;2023-12-20T07:16:20;7.20;1.00
56542;DHT22;42438;53.174;6.730;2023-12-20T07:18:51;7.20;1.00
56542;DHT22;42438;53.174;6.730;2023-12-20T07:21:23;7.20;99.90
56542;DHT22;42438;53.174;6.730;2023-12-20T07:23:53;7.20;99.90
56542;DHT22;42438;53.174;6.730;2023-12-20T07:26:24;7.30;99.90
56542;DHT22;42438;53.174;6.730;2023-12-20T07:28:55;7.20;99.90
56542;DHT22;42438;53.174;6.730;2023-12-20T07:31:25;7.20;99.90
56542;DHT22;42438;53.174;6.730;2023-12-20T07:33:56;7.30;99.90
56542;DHT22;42438;53.174;6.730;2023-12-20T07:36:26;7.30;99.90
56542;DHT22;42438;53.174;6.730;2023-12-20T07:38:57;7.90;99.90
56542;DHT22;42438;53.174;6.730;2023-12-20T07:41:28;7.40;99.90
56542;DHT22;42438;53.174;6.730;2023-12-20T07:43:59;7.40;1.00
56542;DHT22;42438;53.174;6.730;2023-12-20T07:46:29;7.40;1.00
56542;DHT22;42438;53.174;6.730;2023-12-20T07:49:00;7.40;1.00
56542;DHT22;42438;53.174;6.730;2023-12-20T07:51:30;7.40;99.90
56542;DHT22;42438;53.174;6.730;2023-12-20T07:54:01;7.50;99.90
56542;DHT22;42438;53.174;6.730;2023-12-20T07:56:33;7.50;99.90
56542;DHT22;42438;53.174;6.730;2023-12-20T07:59:04;8.20;47.30
56542;DHT22;42438;53.174;6.730;2023-12-20T08:01:35;7.50;1.00
56542;DHT22;42438;53.174;6.730;2023-12-20T08:04:05;7.50;99.90
56542;DHT22;42438;53.174;6.730;2023-12-20T08:06:36;7.50;1.00
56542;DHT22;42438;53.174;6.730;2023-12-20T08:09:06;7.50;99.90
56542;DHT22;42438;53.174;6.730;2023-12-20T08:11:37;7.50;99.90
56542;DHT22;42438;53.174;6.730;2023-12-20T08:14:08;7.50;99.90
56542;DHT22;42438;53.174;6.730;2023-12-20T08:16:38;7.60;1.00
56542;DHT22;42438;53.174;6.730;2023-12-20T08:19:09;7.60;1.00
56542;DHT22;42438;53.174;6.730;2023-12-20T08:21:39;7.60;99.90
56542;DHT22;42438;53.174;6.730;2023-12-20T08:24:10;7.70;1.00
56542;DHT22;42438;53.174;6.730;2023-12-20T08:26:41;7.70;99.90
56542;DHT22;42438;53.174;6.730;2023-12-20T08:29:13;7.70;99.90
56542;DHT22;42438;53.174;6.730;2023-12-20T08:31:44;7.70;99.90
56542;DHT22;42438;53.174;6.730;2023-12-20T08:34:15;7.80;99.90
56542;DHT22;42438;53.174;6.730;2023-12-20T08:36:46;7.80;1.00
56542;DHT22;42438;53.174;6.730;2023-12-20T08:39:16;7.70;97.10
56542;DHT22;42438;53.174;6.730;2023-12-20T08:41:47;8.10;99.90
56542;DHT22;42438;53.174;6.730;2023-12-20T08:44:18;7.70;1.00
56542;DHT22;42438;53.174;6.730;2023-12-20T08:46:48;7.70;1.00
56542;DHT22;42438;53.174;6.730;2023-12-20T08:49:19;7.80;99.90
56542;DHT22;42438;53.174;6.730;2023-12-20T08:51:50;7.70;1.00
56542;DHT22;42438;53.174;6.730;2023-12-20T08:54:21;7.10;99.90
56542;DHT22;42438;53.174;6.730;2023-12-20T08:56:51;6.70;99.90
56542;DHT22;42438;53.174;6.730;2023-12-20T08:59:22;6.40;1.00
56542;DHT22;42438;53.174;6.730;2023-12-20T09:01:53;6.10;99.90
56542;DHT22;42438;53.174;6.730;2023-12-20T09:04:25;5.70;99.90
56542;DHT22;42438;53.174;6.730;2023-12-20T09:06:56;5.50;1.00
56542;DHT22;42438;53.174;6.730;2023-12-20T09:09:26;5.70;99.90
56542;DHT22;42438;53.174;6.730;2023-12-20T09:11:57;5.50;1.00
56542;DHT22;42438;53.174;6.730;2023-12-20T09:14:28;5.40;1.00
56542;DHT22;42438;53.174;6.730;2023-12-20T09:16:58;5.50;1.00
56542;DHT22;42438;53.174;6.730;2023-12-20T09:19:31;6.20;1.00
56542;DHT22;42438;53.174;6.730;2023-12-20T09:22:02;5.90;1.00
56542;DHT22;42438;53.174;6.730;2023-12-20T09:24:32;5.40;1.00
56542;DHT22;42438;53.174;6.730;2023-12-20T09:27:03;5.40;1.00
56542;DHT22;42438;53.174;6.730;2023-12-20T09:29:34;5.50;3.60
56542;DHT22;42438;53.174;6.730;2023-12-20T09:32:05;5.40;15.40
56542;DHT22;42438;53.174;6.730;2023-12-20T09:34:36;5.50;10.60
56542;DHT22;42438;53.174;6.730;2023-12-20T09:37:07;6.00;5.30
56542;DHT22;42438;53.174;6.730;2023-12-20T09:39:38;5.60;1.00
56542;DHT22;42438;53.174;6.730;2023-12-20T09:42:12;5.70;1.00
56542;DHT22;42438;53.174;6.730;2023-12-20T09:44:47;5.50;1.00
56542;DHT22;42438;53.174;6.730;2023-12-20T09:47:20;5.50;1.00
56542;DHT22;42438;53.174;6.730;2023-12-20T09:49:53;6.10;1.00
56542;DHT22;42438;53.174;6.730;2023-12-20T09:52:24;5.80;1.00
56542;DHT22;42438;53.174;6.730;2023-12-20T09:54:55;6.40;99.90
56542;DHT22;42438;53.174;6.730;2023-12-20T09:57:27;5.70;99.90
56542;DHT22;42438;53.174;6.730;2023-12-20T09:59:58;5.70;1.00
56542;DHT22;42438;53.174;6.730;2023-12-20T10:02:29;5.80;22.50
56542;DHT22;42438;53.174;6.730;2023-12-20T10:05:02;5.90;52.70
56542;DHT22;42438;53.174;6.730;2023-12-20T10:07:35;5.90;99.90
56542;DHT22;42438;53.174;6.730;2023-12-20T10:10:06;5.90;99.90
56542;DHT22;42438;53.174;6.730;2023-12-20T10:12:39;5.90;1.00
56542;DHT22;42438;53.174;6.730;2023-12-20T10:15:09;6.10;99.90
56542;DHT22;42438;53.174;6.730;2023-12-20T10:17:40;6.00;99.90
56542;DHT22;42438;53.174;6.730;2023-12-20T10:20:11;5.90;1.00
56542;DHT22;42438;53.174;6.730;2023-12-20T10:22:42;5.90;99.90
56542;DHT22;42438;53.174;6.730;2023-12-20T10:25:12;6.00;99.90
56542;DHT22;42438;53.174;6.730;2023-12-20T10:27:43;6.00;1.00
56542;DHT22;42438;53.174;6.730;2023-12-20T10:30:14;6.00;1.00
56542;DHT22;42438;53.174;6.730;2023-12-20T10:32:45;6.00;99.90
56542;DHT22;42438;53.174;6.730;2023-12-20T10:35:15;6.40;1.00
56542;DHT22;42438;53.174;6.730;2023-12-20T10:37:47;6.10;1.00
56542;DHT22;42438;53.174;6.730;2023-12-20T10:40:18;6.20;99.90
56542;DHT22;42438;53.174;6.730;2023-12-20T10:42:50;6.30;1.00
56542;DHT22;42438;53.174;6.730;2023-12-20T10:45:22;6.30;99.90
56542;DHT22;42438;53.174;6.730;2023-12-20T10:47:54;6.40;1.00
56542;DHT22;42438;53.174;6.730;2023-12-20T10:50:27;6.40;99.90
56542;DHT22;42438;53.174;6.730;2023-12-20T10:52:58;6.40;54.70
56542;DHT22;42438;53.174;6.730;2023-12-20T10:55:29;6.50;1.00
56542;DHT22;42438;53.174;6.730;2023-12-20T10:58:09;6.40;99.90
56542;DHT22;42438;53.174;6.730;2023-12-20T11:00:41;6.40;99.90
56542;DHT22;42438;53.174;6.730;2023-12-20T11:03:16;6.40;99.90
56542;DHT22;42438;53.174;6.730;2023-12-20T11:08:33;6.40;54.20
56542;DHT22;42438;53.174;6.730;2023-12-20T11:11:14;6.30;1.00
56542;DHT22;42438;53.174;6.730;2023-12-20T11:13:57;6.30;24.70
56542;DHT22;42438;53.174;6.730;2023-12-20T11:16:33;6.40;99.90
56542;DHT22;42438;53.174;6.730;2023-12-20T11:19:07;6.40;25.80
56542;DHT22;42438;53.174;6.730;2023-12-20T11:21:38;6.40;99.90
56542;DHT22;42438;53.174;6.730;2023-12-20T11:24:09;6.40;1.00
56542;DHT22;42438;53.174;6.730;2023-12-20T11:26:47;6.60;1.00
56542;DHT22;42438;53.174;6.730;2023-12-20T11:29:35;6.40;99.90
56542;DHT22;42438;53.174;6.730;2023-12-20T11:35:00;7.30;81.10
56542;DHT22;42438;53.174;6.730;2023-12-20T11:37:32;6.50;61.70
56542;DHT22;42438;53.174;6.730;2023-12-20T11:40:06;6.50;38.40
56542;DHT22;42438;53.174;6.730;2023-12-20T11:42:48;6.40;99.90
56542;DHT22;42438;53.174;6.730;2023-12-20T11:45:21;6.50;99.90
56542;DHT22;42438;53.174;6.730;2023-12-20T11:47:54;6.50;99.90
56542;DHT22;42438;53.174;6.730;2023-12-20T11:50:25;6.60;99.90
56542;DHT22;42438;53.174;6.730;2023-12-20T11:52:56;6.70;2.10
56542;DHT22;42438;53.174;6.730;2023-12-20T11:55:26;6.90;99.90
56542;DHT22;42438;53.174;6.730;2023-12-20T11:57:57;6.90;99.90
56542;DHT22;42438;53.174;6.730;2023-12-20T12:00:28;6.90;1.00
56542;DHT22;42438;53.174;6.730;2023-12-20T12:02:59;7.00;99.90
56542;DHT22;42438;53.174;6.730;2023-12-20T12:05:32;7.00;99.90
56542;DHT22;42438;53.174;6.730;2023-12-20T12:08:03;7.10;99.90
56542;DHT22;42438;53.174;6.730;2023-12-20T12:10:33;7.10;99.90
56542;DHT22;42438;53.174;6.730;2023-12-20T12:13:04;7.10;19.40
56542;DHT22;42438;53.174;6.730;2023-12-20T12:15:36;7.20;1.00
56542;DHT22;42438;53.174;6.730;2023-12-20T12:18:07;7.00;99.90
56542;DHT22;42438;53.174;6.730;2023-12-20T12:20:38;7.00;94.90
56542;DHT22;42438;53.174;6.730;2023-12-20T12:23:09;7.00;70.70
56542;DHT22;42438;53.174;6.730;2023-12-20T12:25:39;7.00;99.90
56542;DHT22;42438;53.174;6.730;2023-12-20T12:28:11;7.00;99.90
56542;DHT22;42438;53.174;6.730;2023-12-20T12:30:42;7.00;99.90
56542;DHT22;42438;53.174;6.730;2023-12-20T12:33:12;7.00;99.90
56542;DHT22;42438;53.174;6.730;2023-12-20T12:35:43;7.00;1.00
56542;DHT22;42438;53.174;6.730;2023-12-20T12:38:15;7.00;1.00
56542;DHT22;42438;53.174;6.730;2023-12-20T12:40:46;6.90;1.00
56542;DHT22;42438;53.174;6.730;2023-12-20T12:43:17;7.00;99.90
56542;DHT22;42438;53.174;6.730;2023-12-20T12:45:48;7.00;99.90
56542;DHT22;42438;53.174;6.730;2023-12-20T12:48:19;7.00;99.90
56542;DHT22;42438;53.174;6.730;2023-12-20T12:50:49;7.10;32.50
56542;DHT22;42438;53.174;6.730;2023-12-20T12:53:22;7.20;1.00
56542;DHT22;42438;53.174;6.730;2023-12-20T12:55:53;7.20;99.90
56542;DHT22;42438;53.174;6.730;2023-12-20T12:58:25;7.20;99.90
56542;DHT22;42438;53.174;6.730;2023-12-20T13:00:56;7.30;99.90
56542;DHT22;42438;53.174;6.730;2023-12-20T13:03:27;7.40;99.90
56542;DHT22;42438;53.174;6.730;2023-12-20T13:05:57;7.40;99.90
56542;DHT22;42438;53.174;6.730;2023-12-20T13:08:29;7.40;88.70
56542;DHT22;42438;53.174;6.730;2023-12-20T13:11:00;7.40;99.90
56542;DHT22;42438;53.174;6.730;2023-12-20T13:13:31;7.50;99.90
56542;DHT22;42438;53.174;6.730;2023-12-20T13:16:02;7.40;99.90
56542;DHT22;42438;53.174;6.730;2023-12-20T13:18:32;7.40;99.90
56542;DHT22;42438;53.174;6.730;2023-12-20T13:21:03;7.40;1.00
56542;DHT22;42438;53.174;6.730;2023-12-20T13:23:34;7.30;99.90
56542;DHT22;42438;53.174;6.730;2023-12-20T13:26:05;7.30;99.90
56542;DHT22;42438;53.174;6.730;2023-12-20T13:28:36;7.30;99.90
56542;DHT22;42438;53.174;6.730;2023-12-20T13:31:06;7.20;99.90
56542;DHT22;42438;53.174;6.730;2023-12-20T13:33:37;7.30;99.90
56542;DHT22;42438;53.174;6.730;2023-12-20T13:36:08;7.20;99.90
56542;DHT22;42438;53.174;6.730;2023-12-20T13:38:39;7.10;1.00
56542;DHT22;42438;53.174;6.730;2023-12-20T13:41:09;7.10;99.90
56542;DHT22;42438;53.174;6.730;2023-12-20T13:43:40;7.00;1.00
56542;DHT22;42438;53.174;6.730;2023-12-20T13:46:11;7.00;1.00
56542;DHT22;42438;53.174;6.730;2023-12-20T13:48:41;6.90;99.90
56542;DHT22;42438;53.174;6.730;2023-12-20T13:51:12;6.90;99.90
56542;DHT22;42438;53.174;6.730;2023-12-20T13:53:43;6.90;99.90
56542;DHT22;42438;53.174;6.730;2023-12-20T13:56:17;6.80;99.90
56542;DHT22;42438;53.174;6.730;2023-12-20T13:58:48;6.80;99.90
56542;DHT22;42438;53.174;6.730;2023-12-20T14:01:19;6.70;99.90
56542;DHT22;42438;53.174;6.730;2023-12-20T14:03:50;6.70;99.90
56542;DHT22;42438;53.174;6.730;2023-12-20T14:06:21;6.70;99.90
56542;DHT22;42438;53.174;6.730;2023-12-20T14:08:51;6.60;99.90
56542;DHT22;42438;53.174;6.730;2023-12-20T14:11:22;6.60;99.90
56542;DHT22;42438;53.174;6.730;2023-12-20T14:13:52;6.60;99.90
56542;DHT22;42438;53.174;6.730;2023-12-20T14:16:27;6.60;99.90
56542;DHT22;42438;53.174;6.730;2023-12-20T14:18:58;6.60;99.90
56542;DHT22;42438;53.174;6.730;2023-12-20T14:21:29;6.50;99.90
56542;DHT22;42438;53.174;6.730;2023-12-20T14:23:59;6.50;99.90
56542;DHT22;42438;53.174;6.730;2023-12-20T14:26:31;6.50;99.90
56542;DHT22;42438;53.174;6.730;2023-12-20T14:29:02;6.40;99.90
56542;DHT22;42438;53.174;6.730;2023-12-20T14:31:34;6.40;1.00
56542;DHT22;42438;53.174;6.730;2023-12-20T14:34:05;6.40;1.00
56542;DHT22;42438;53.174;6.730;2023-12-20T14:36:37;6.30;1.00
56542;DHT22;42438;53.174;6.730;2023-12-20T14:39:08;6.30;1.00
56542;DHT22;42438;53.174;6.730;2023-12-20T14:41:39;7.00;1.00
56542;DHT22;42438;53.174;6.730;2023-12-20T14:44:12;6.40;1.00
56542;DHT22;42438;53.174;6.730;2023-12-20T14:46:43;6.30;1.00
56542;DHT22;42438;53.174;6.730;2023-12-20T14:49:13;6.30;1.00
56542;DHT22;42438;53.174;6.730;2023-12-20T14:51:44;6.30;1.00
56542;DHT22;42438;53.174;6.730;2023-12-20T14:54:15;6.30;1.00
56542;DHT22;42438;53.174;6.730;2023-12-20T14:56:46;6.30;1.00
56542;DHT22;42438;53.174;6.730;2023-12-20T14:59:17;6.30;1.00
56542;DHT22;42438;53.174;6.730;2023-12-20T15:01:48;6.30;1.00
56542;DHT22;42438;53.174;6.730;2023-12-20T15:04:18;6.30;1.00
56542;DHT22;42438;53.174;6.730;2023-12-20T15:06:49;6.20;1.00
56542;DHT22;42438;53.174;6.730;2023-12-20T15:09:20;6.20;1.00
56542;DHT22;42438;53.174;6.730;2023-12-20T15:11:51;6.10;1.00
56542;DHT22;42438;53.174;6.730;2023-12-20T15:14:22;6.10;1.00
56542;DHT22;42438;53.174;6.730;2023-12-20T15:16:53;6.40;1.00
56542;DHT22;42438;53.174;6.730;2023-12-20T15:19:23;6.20;1.00
56542;DHT22;42438;53.174;6.730;2023-12-20T15:21:54;6.10;1.00
56542;DHT22;42438;53.174;6.730;2023-12-20T15:24:24;6.10;1.00
56542;DHT22;42438;53.174;6.730;2023-12-20T15:27:07;6.10;1.00
56542;DHT22;42438;53.174;6.730;2023-12-20T15:29:38;6.00;1.00
56542;DHT22;42438;53.174;6.730;2023-12-20T15:32:08;6.10;1.00
56542;DHT22;42438;53.174;6.730;2023-12-20T15:34:40;6.00;1.00
56542;DHT22;42438;53.174;6.730;2023-12-20T15:37:11;6.00;1.00
56542;DHT22;42438;53.174;6.730;2023-12-20T15:39:41;6.10;1.00
56542;DHT22;42438;53.174;6.730;2023-12-20T15:42:13;6.00;1.00
56542;DHT22;42438;53.174;6.730;2023-12-20T15:44:43;5.90;1.00
56542;DHT22;42438;53.174;6.730;2023-12-20T15:47:14;6.00;1.00
56542;DHT22;42438;53.174;6.730;2023-12-20T15:49:45;6.10;1.00
56542;DHT22;42438;53.174;6.730;2023-12-20T15:52:17;6.00;10.80
56542;DHT22;42438;53.174;6.730;2023-12-20T15:54:48;6.00;16.90
56542;DHT22;42438;53.174;6.730;2023-12-20T15:57:19;6.00;20.70
56542;DHT22;42438;53.174;6.730;2023-12-20T15:59:50;6.00;25.30
56542;DHT22;42438;53.174;6.730;2023-12-20T16:02:21;6.20;28.40
56542;DHT22;42438;53.174;6.730;2023-12-20T16:04:53;6.50;41.10
56542;DHT22;42438;53.174;6.730;2023-12-20T16:07:23;6.00;49.00
56542;DHT22;42438;53.174;6.730;2023-12-20T16:09:54;6.10;52.40
56542;DHT22;42438;53.174;6.730;2023-12-20T16:12:24;6.00;59.70
56542;DHT22;42438;53.174;6.730;2023-12-20T16:14:55;6.10;63.80
56542;DHT22;42438;53.174;6.730;2023-12-20T16:17:26;6.20;68.00
56542;DHT22;42438;53.174;6.730;2023-12-20T16:19:56;6.10;73.70